Time;durP1;ratioP1;P1;durP2;ratioP2;P2;SDS_P1;SDS_P2;PMS_P1;PMS_P2;Temp;Humidity;BMP_temperature;BMP_pressure;BME280_temperature;BME280_humidity;BME280_pressure;Samples;Min_cycle;Max_cycle;Signal;HPM_P1;HPM_P2
2023/01/06 00:02:06;;;;;;;0.65;0.40;;;;;;;;;;5115653;28;20050;-56
2023/01/06 00:04:32;;;;;;;2.10;0.60;;;;;;;;;;5115671;28;20027;-57
2023/01/06 00:06:58;;;;;;;1.58;0.73;;;;;;;;;;5115343;28;20030;-56
2023/01/06 00:09:24;;;;;;;1.08;0.47;;;;;;;;;;5115587;28;20101;-56
2023/01/06 00:11:50;;;;;;;1.58;0.50;;;;;;;;;;5115251;28;20020;-57
2023/01/06 00:14:17;;;;;;;1.65;0.80;;;;;;;;;;5115735;28;20146;-56
2023/01/06 00:16:43;;;;;;;1.13;0.40;;;;;;;;;;5114844;28;20091;-57
2023/01/06 00:19:10;;;;;;;1.17;0.68;;;;;;;;;;5114872;28;20035;-56
2023/01/06 00:21:36;;;;;;;1.58;1.00;;;;;;;;;;5115073;28;20035;-57
2023/01/06 00:24:02;;;;;;;1.20;0.40;;;;;;;;;;5115047;28;20032;-56
2023/01/06 00:26:28;;;;;;;2.70;0.82;;;;;;;;;;5114709;28;20028;-57
2023/01/06 00:28:55;;;;;;;1.27;0.40;;;;;;;;;;5115444;28;20027;-57
2023/01/06 00:31:21;;;;;;;4.05;0.68;;;;;;;;;;5115163;28;20030;-57
2023/01/06 00:33:47;;;;;;;1.83;0.73;;;;;;;;;;5114852;28;20019;-57
2023/01/06 00:36:13;;;;;;;2.08;0.80;;;;;;;;;;5115140;28;20023;-57
2023/01/06 00:38:39;;;;;;;1.80;0.80;;;;;;;;;;5114378;28;20027;-57
2023/01/06 00:43:56;;;;;;;1.27;0.45;;;;;;;;;;5114785;28;20059;-56
2023/01/06 00:46:24;;;;;;;0.95;0.32;;;;;;;;;;5115439;28;20088;-57
2023/01/06 00:48:50;;;;;;;1.35;0.38;;;;;;;;;;5114862;28;20358;-57
2023/01/06 00:51:16;;;;;;;1.77;0.60;;;;;;;;;;5115000;28;20034;-57
2023/01/06 00:53:42;;;;;;;0.90;0.35;;;;;;;;;;5115053;28;20031;-56
2023/01/06 00:56:07;;;;;;;0.45;0.25;;;;;;;;;;5115151;28;20110;-57
2023/01/06 00:58:34;;;;;;;2.58;0.60;;;;;;;;;;5114874;28;20357;-56
2023/01/06 01:01:03;;;;;;;1.63;0.50;;;;;;;;;;5114309;28;20046;-57
2023/01/06 01:03:30;;;;;;;1.10;0.55;;;;;;;;;;5114210;28;20047;-57
2023/01/06 01:06:03;;;;;;;1.15;0.80;;;;;;;;;;5114990;28;20110;-57
2023/01/06 01:08:30;;;;;;;1.30;0.60;;;;;;;;;;5114638;28;20047;-57
2023/01/06 01:11:01;;;;;;;1.35;0.68;;;;;;;;;;5114800;28;20027;-57
2023/01/06 01:13:27;;;;;;;2.22;0.93;;;;;;;;;;5114616;28;20020;-58
2023/01/06 01:15:53;;;;;;;0.93;0.55;;;;;;;;;;5114593;28;20436;-57
2023/01/06 01:18:19;;;;;;;1.98;0.73;;;;;;;;;;5114122;28;20089;-57
2023/01/06 01:20:46;;;;;;;1.00;0.50;;;;;;;;;;5114190;28;20034;-57
2023/01/06 01:23:12;;;;;;;1.45;0.60;;;;;;;;;;5114176;28;20060;-57
2023/01/06 01:25:39;;;;;;;1.42;0.63;;;;;;;;;;5114174;28;20457;-57
2023/01/06 01:28:05;;;;;;;1.48;0.75;;;;;;;;;;5114087;28;20053;-57
2023/01/06 01:30:31;;;;;;;1.55;0.93;;;;;;;;;;5114036;28;20366;-57
2023/01/06 01:32:57;;;;;;;1.63;0.80;;;;;;;;;;5118459;28;20024;-57
2023/01/06 01:35:23;;;;;;;1.50;0.80;;;;;;;;;;5118927;28;20020;-57
2023/01/06 01:37:49;;;;;;;1.17;0.57;;;;;;;;;;5118296;28;20034;-57
2023/01/06 01:40:15;;;;;;;0.80;0.52;;;;;;;;;;5118114;28;20031;-57
2023/01/06 01:42:41;;;;;;;2.53;1.30;;;;;;;;;;5118655;28;20024;-58
2023/01/06 01:45:20;;;;;;;1.98;0.80;;;;;;;;;;5118667;28;20081;-57
2023/01/06 01:47:52;;;;;;;1.13;0.52;;;;;;;;;;5118404;28;20445;-57
2023/01/06 01:50:27;;;;;;;2.33;0.85;;;;;;;;;;5117770;28;20076;-56
2023/01/06 01:53:05;;;;;;;1.60;0.70;;;;;;;;;;5117929;28;20027;-57
2023/01/06 01:55:31;;;;;;;1.00;0.57;;;;;;;;;;5118457;28;20073;-57
2023/01/06 01:58:06;;;;;;;1.77;0.82;;;;;;;;;;5117749;28;20034;-57
2023/01/06 02:00:33;;;;;;;1.88;0.85;;;;;;;;;;5117733;28;20035;-56
2023/01/06 02:02:59;;;;;;;2.15;0.90;;;;;;;;;;5117809;28;20051;-57
2023/01/06 02:05:26;;;;;;;0.95;0.45;;;;;;;;;;5118315;28;20027;-58
2023/01/06 02:07:52;;;;;;;0.63;0.47;;;;;;;;;;5118004;28;20035;-57
2023/01/06 02:10:19;;;;;;;2.22;1.30;;;;;;;;;;5117613;28;20034;-57
2023/01/06 02:12:48;;;;;;;1.77;1.30;;;;;;;;;;5117551;28;20028;-56
2023/01/06 02:15:22;;;;;;;0.85;0.45;;;;;;;;;;5118152;28;20027;-57
2023/01/06 02:17:48;;;;;;;1.45;0.75;;;;;;;;;;5117821;28;20028;-57
2023/01/06 02:20:23;;;;;;;1.52;0.57;;;;;;;;;;5117940;28;20081;-57
2023/01/06 02:23:04;;;;;;;0.82;0.40;;;;;;;;;;5117797;28;20047;-57
2023/01/06 02:25:39;;;;;;;1.52;0.60;;;;;;;;;;5117387;28;20028;-57
2023/01/06 02:28:23;;;;;;;1.23;0.65;;;;;;;;;;5117289;28;20480;-57
2023/01/06 02:31:08;;;;;;;1.08;0.57;;;;;;;;;;5117848;28;20031;-57
2023/01/06 02:33:39;;;;;;;1.50;0.90;;;;;;;;;;5117499;28;20027;-56
2023/01/06 02:36:05;;;;;;;3.30;1.15;;;;;;;;;;5117500;28;20028;-56
2023/01/06 02:38:34;;;;;;;2.25;1.13;;;;;;;;;;5116757;28;20043;-57
2023/01/06 02:41:19;;;;;;;1.27;0.60;;;;;;;;;;5117044;28;20049;-57
2023/01/06 02:43:51;;;;;;;1.35;0.85;;;;;;;;;;5115925;28;20464;-58
2023/01/06 02:46:25;;;;;;;1.83;0.95;;;;;;;;;;5117284;28;20103;-57
2023/01/06 02:49:03;;;;;;;2.05;0.60;;;;;;;;;;5116913;28;20031;-57
2023/01/06 02:51:55;;;;;;;1.35;0.63;;;;;;;;;;5117235;28;20023;-57
2023/01/06 02:54:42;;;;;;;3.60;0.75;;;;;;;;;;5112380;28;20054;-57
2023/01/06 02:57:14;;;;;;;1.25;0.80;;;;;;;;;;5116741;28;20020;-57
2023/01/06 02:59:45;;;;;;;2.53;1.30;;;;;;;;;;5116546;28;20056;-57
2023/01/06 03:02:11;;;;;;;1.67;0.80;;;;;;;;;;5116696;28;20047;-57
2023/01/06 03:04:39;;;;;;;2.00;0.73;;;;;;;;;;5116592;28;20106;-57
2023/01/06 03:07:06;;;;;;;1.98;1.08;;;;;;;;;;5116569;28;20019;-58
2023/01/06 03:09:37;;;;;;;1.23;0.57;;;;;;;;;;5116512;28;20043;-57
2023/01/06 03:12:06;;;;;;;3.05;2.03;;;;;;;;;;5116918;28;20028;-57
2023/01/06 03:14:34;;;;;;;3.57;2.40;;;;;;;;;;5116518;28;20024;-57
2023/01/06 03:17:01;;;;;;;2.03;0.90;;;;;;;;;;5116340;28;20369;-57
2023/01/06 03:19:27;;;;;;;0.80;0.50;;;;;;;;;;5116689;28;20080;-55
2023/01/06 03:21:53;;;;;;;2.47;1.08;;;;;;;;;;5116108;28;20077;-57
2023/01/06 03:24:20;;;;;;;1.70;0.65;;;;;;;;;;5116298;28;20048;-57
2023/01/06 03:26:46;;;;;;;1.73;0.82;;;;;;;;;;5116858;28;20396;-57
2023/01/06 03:29:13;;;;;;;1.60;0.80;;;;;;;;;;5116044;28;20024;-58
2023/01/06 03:31:50;;;;;;;2.03;0.88;;;;;;;;;;5116270;28;20023;-57
2023/01/06 03:34:34;;;;;;;1.65;0.77;;;;;;;;;;5115792;28;20028;-57
2023/01/06 03:37:10;;;;;;;3.47;1.48;;;;;;;;;;5115882;28;20023;-57
2023/01/06 03:39:36;;;;;;;1.63;0.60;;;;;;;;;;5115819;28;20035;-58
2023/01/06 03:44:52;;;;;;;1.40;0.77;;;;;;;;;;5115675;28;20027;-57
2023/01/06 03:47:25;;;;;;;1.80;1.02;;;;;;;;;;5115990;28;20050;-57
2023/01/06 03:49:55;;;;;;;2.35;1.13;;;;;;;;;;5116563;28;20034;-58
2023/01/06 03:52:26;;;;;;;2.53;0.95;;;;;;;;;;5116141;28;20024;-57
2023/01/06 03:55:14;;;;;;;1.40;0.70;;;;;;;;;;5115444;28;20028;-57
2023/01/06 03:57:44;;;;;;;1.40;0.70;;;;;;;;;;5115590;28;20062;-56
2023/01/06 04:00:29;;;;;;;1.83;1.20;;;;;;;;;;5115645;28;20100;-57
2023/01/06 04:02:55;;;;;;;2.63;1.17;;;;;;;;;;5115986;28;20078;-57
2023/01/06 04:05:23;;;;;;;2.25;1.10;;;;;;;;;;5115732;28;20034;-57
2023/01/06 04:07:49;;;;;;;4.40;0.60;;;;;;;;;;5115679;28;20043;-57
2023/01/06 04:10:15;;;;;;;1.75;1.00;;;;;;;;;;5115883;28;20031;-57
2023/01/06 04:12:41;;;;;;;1.23;0.65;;;;;;;;;;5115520;28;20492;-57
2023/01/06 04:15:07;;;;;;;1.45;0.95;;;;;;;;;;5116097;28;20020;-58
2023/01/06 04:17:33;;;;;;;1.30;0.82;;;;;;;;;;5115138;28;20172;-58
2023/01/06 04:20:00;;;;;;;2.17;0.88;;;;;;;;;;5114983;28;20028;-58
2023/01/06 04:22:26;;;;;;;2.95;1.27;;;;;;;;;;5115888;28;20027;-57
2023/01/06 04:24:52;;;;;;;2.13;0.90;;;;;;;;;;5114800;28;20034;-57
2023/01/06 04:27:18;;;;;;;2.67;1.08;;;;;;;;;;5115036;28;20106;-57
2023/01/06 04:29:43;;;;;;;1.23;0.80;;;;;;;;;;5114944;28;20023;-58
2023/01/06 04:32:09;;;;;;;1.30;0.63;;;;;;;;;;5115235;28;20102;-57
2023/01/06 04:34:35;;;;;;;1.63;0.80;;;;;;;;;;5114634;28;20024;-56
2023/01/06 04:37:01;;;;;;;1.77;0.77;;;;;;;;;;5114957;28;20037;-57
2023/01/06 04:39:27;;;;;;;1.60;0.70;;;;;;;;;;5115442;28;20453;-57
2023/01/06 04:41:53;;;;;;;1.40;0.60;;;;;;;;;;5114822;28;20031;-57
2023/01/06 04:44:19;;;;;;;1.80;1.02;;;;;;;;;;5114788;28;20023;-58
2023/01/06 04:46:46;;;;;;;1.83;0.82;;;;;;;;;;5115525;28;20076;-57
2023/01/06 04:49:12;;;;;;;0.95;0.70;;;;;;;;;;5114672;28;20035;-56
2023/01/06 04:51:38;;;;;;;1.67;0.65;;;;;;;;;;5114608;28;20024;-57
2023/01/06 04:54:03;;;;;;;1.52;0.77;;;;;;;;;;5114632;28;20020;-56
2023/01/06 04:56:29;;;;;;;1.70;1.00;;;;;;;;;;5114627;28;20053;-57
2023/01/06 04:58:56;;;;;;;2.67;0.98;;;;;;;;;;5114719;28;20152;-57
2023/01/06 05:01:23;;;;;;;1.35;0.95;;;;;;;;;;5114240;28;20059;-57
2023/01/06 05:03:49;;;;;;;6.97;1.10;;;;;;;;;;5114246;28;20028;-57
2023/01/06 05:06:15;;;;;;;1.15;0.60;;;;;;;;;;5114320;28;20024;-58
2023/01/06 05:08:42;;;;;;;1.77;1.10;;;;;;;;;;5114466;28;20035;-58
2023/01/06 05:11:10;;;;;;;0.95;0.57;;;;;;;;;;5114912;28;20052;-57
2023/01/06 05:13:36;;;;;;;2.28;1.40;;;;;;;;;;5114283;28;20019;-58
2023/01/06 05:16:06;;;;;;;3.47;1.38;;;;;;;;;;5114948;28;20527;-57
2023/01/06 05:18:32;;;;;;;2.28;1.00;;;;;;;;;;5114204;28;20063;-58
2023/01/06 05:20:58;;;;;;;1.73;0.82;;;;;;;;;;5114312;28;20164;-58
2023/01/06 05:23:24;;;;;;;2.47;1.30;;;;;;;;;;5114222;28;20377;-58
2023/01/06 05:25:51;;;;;;;2.90;1.52;;;;;;;;;;5114525;28;20111;-58
2023/01/06 05:28:17;;;;;;;2.00;1.40;;;;;;;;;;5114173;28;20461;-58
2023/01/06 05:30:43;;;;;;;2.25;0.73;;;;;;;;;;5113846;28;20469;-58
2023/01/06 05:33:09;;;;;;;2.20;0.90;;;;;;;;;;5114714;28;20024;-58
2023/01/06 05:35:35;;;;;;;1.95;1.17;;;;;;;;;;5114240;28;20102;-58
2023/01/06 05:38:00;;;;;;;2.30;1.17;;;;;;;;;;5114733;28;20433;-58
2023/01/06 05:40:27;;;;;;;1.75;0.70;;;;;;;;;;5114087;28;20031;-58
2023/01/06 05:42:54;;;;;;;1.90;1.00;;;;;;;;;;5113721;28;20036;-58
2023/01/06 05:45:20;;;;;;;4.40;0.90;;;;;;;;;;5114944;28;20346;-58
2023/01/06 05:47:46;;;;;;;1.40;0.70;;;;;;;;;;5113752;28;20106;-58
2023/01/06 05:50:12;;;;;;;2.45;1.10;;;;;;;;;;5114027;28;20054;-58
2023/01/06 05:52:38;;;;;;;2.47;1.35;;;;;;;;;;5114496;28;20171;-58
2023/01/06 05:55:04;;;;;;;5.47;1.25;;;;;;;;;;5114631;28;20110;-58
2023/01/06 05:57:32;;;;;;;1.48;0.80;;;;;;;;;;5113634;28;20077;-57
2023/01/06 05:59:58;;;;;;;1.27;0.77;;;;;;;;;;5114127;28;20043;-58
2023/01/06 06:02:24;;;;;;;2.05;0.95;;;;;;;;;;5114151;28;20050;-58
2023/01/06 06:04:50;;;;;;;1.63;0.85;;;;;;;;;;5113942;28;20032;-58
2023/01/06 06:07:17;;;;;;;1.23;0.73;;;;;;;;;;5114169;28;20024;-58
2023/01/06 06:09:42;;;;;;;2.28;1.10;;;;;;;;;;5113832;28;20027;-58
2023/01/06 06:12:08;;;;;;;1.58;0.85;;;;;;;;;;5114300;28;20023;-58
2023/01/06 06:14:34;;;;;;;1.30;0.70;;;;;;;;;;5114137;28;20030;-58
2023/01/06 06:17:00;;;;;;;4.35;0.82;;;;;;;;;;5114778;28;20028;-58
2023/01/06 06:19:26;;;;;;;1.48;0.70;;;;;;;;;;5117465;28;20032;-58
2023/01/06 06:21:52;;;;;;;1.60;0.82;;;;;;;;;;5117589;28;20031;-58
2023/01/06 06:24:18;;;;;;;1.50;0.90;;;;;;;;;;5117517;28;20028;-58
2023/01/06 06:26:44;;;;;;;4.22;1.50;;;;;;;;;;5117693;28;20030;-58
2023/01/06 06:29:10;;;;;;;2.17;1.23;;;;;;;;;;5117403;28;20028;-58
2023/01/06 06:31:36;;;;;;;1.70;1.00;;;;;;;;;;5117052;28;20033;-58
2023/01/06 06:34:03;;;;;;;2.58;1.25;;;;;;;;;;5117595;28;20102;-59
2023/01/06 06:36:29;;;;;;;2.45;1.20;;;;;;;;;;5116952;28;20030;-58
2023/01/06 06:38:55;;;;;;;1.60;0.70;;;;;;;;;;5117661;28;20036;-58
2023/01/06 06:41:22;;;;;;;1.67;0.95;;;;;;;;;;5117180;28;20111;-57
2023/01/06 06:43:49;;;;;;;1.90;1.10;;;;;;;;;;5117154;28;20027;-58
2023/01/06 06:46:15;;;;;;;3.10;0.95;;;;;;;;;;5117142;28;20453;-58
2023/01/06 06:48:41;;;;;;;2.00;0.85;;;;;;;;;;5117413;28;20457;-58
2023/01/06 06:51:09;;;;;;;1.52;0.82;;;;;;;;;;5117292;28;20034;-58
2023/01/06 06:53:35;;;;;;;1.77;0.98;;;;;;;;;;5116859;28;20082;-58
2023/01/06 06:56:01;;;;;;;1.00;0.60;;;;;;;;;;5117691;28;20024;-58
2023/01/06 06:58:27;;;;;;;1.52;0.95;;;;;;;;;;5116763;28;20019;-58
2023/01/06 07:00:53;;;;;;;1.20;0.73;;;;;;;;;;5116886;28;20046;-58
2023/01/06 07:03:21;;;;;;;4.72;1.00;;;;;;;;;;5116159;28;20485;-58
2023/01/06 07:05:48;;;;;;;2.70;1.08;;;;;;;;;;5116979;28;20055;-58
2023/01/06 07:08:14;;;;;;;1.80;1.02;;;;;;;;;;5116972;28;20024;-58
2023/01/06 07:10:40;;;;;;;1.67;0.85;;;;;;;;;;5116553;28;20024;-58
2023/01/06 07:13:06;;;;;;;1.83;0.80;;;;;;;;;;5116533;28;20111;-58
2023/01/06 07:15:33;;;;;;;2.25;0.88;;;;;;;;;;5117041;28;20456;-57
2023/01/06 07:18:00;;;;;;;1.27;0.68;;;;;;;;;;5116678;28;20019;-58
2023/01/06 07:20:26;;;;;;;1.17;0.60;;;;;;;;;;5116546;28;20032;-58
2023/01/06 07:22:52;;;;;;;1.88;0.95;;;;;;;;;;5116652;28;20081;-58
2023/01/06 07:25:18;;;;;;;1.20;0.70;;;;;;;;;;5116632;28;20023;-58
2023/01/06 07:27:44;;;;;;;2.28;1.25;;;;;;;;;;5116201;28;20024;-58
2023/01/06 07:30:10;;;;;;;2.70;0.73;;;;;;;;;;5115094;28;20056;-58
2023/01/06 07:32:36;;;;;;;2.13;1.20;;;;;;;;;;5116183;28;20362;-57
2023/01/06 07:35:02;;;;;;;1.85;0.88;;;;;;;;;;5117017;28;20028;-58
2023/01/06 07:37:28;;;;;;;1.85;0.82;;;;;;;;;;5115834;28;20465;-58
2023/01/06 07:39:54;;;;;;;1.75;0.63;;;;;;;;;;5115934;28;20035;-58
2023/01/06 07:42:20;;;;;;;1.63;0.93;;;;;;;;;;5116287;28;20029;-58
2023/01/06 07:44:46;;;;;;;1.73;0.90;;;;;;;;;;5116269;28;20514;-58
2023/01/06 07:47:12;;;;;;;2.17;1.38;;;;;;;;;;5115768;28;20031;-58
2023/01/06 07:49:38;;;;;;;1.00;0.60;;;;;;;;;;5115821;28;20035;-58
2023/01/06 07:52:03;;;;;;;2.67;1.00;;;;;;;;;;5115445;28;20067;-56
2023/01/06 07:54:29;;;;;;;1.83;1.05;;;;;;;;;;5116139;28;20024;-58
2023/01/06 07:56:55;;;;;;;1.38;0.50;;;;;;;;;;5115600;28;20037;-57
2023/01/06 07:59:21;;;;;;;1.90;0.98;;;;;;;;;;5115737;28;20454;-57
2023/01/06 08:01:47;;;;;;;1.55;0.82;;;;;;;;;;5115445;28;20070;-57
2023/01/06 08:04:13;;;;;;;1.48;0.85;;;;;;;;;;5115811;28;20043;-58
2023/01/06 08:06:40;;;;;;;1.30;0.80;;;;;;;;;;5097520;28;20024;-57
2023/01/06 08:09:07;;;;;;;1.45;0.70;;;;;;;;;;5116002;28;20028;-58
2023/01/06 08:11:33;;;;;;;3.38;0.65;;;;;;;;;;5115854;28;20028;-58
2023/01/06 08:13:59;;;;;;;1.83;0.70;;;;;;;;;;5115308;28;20385;-57
2023/01/06 08:16:25;;;;;;;1.00;0.55;;;;;;;;;;5115142;28;20549;-58
2023/01/06 08:18:51;;;;;;;2.28;0.55;;;;;;;;;;5115161;28;20042;-58
2023/01/06 08:21:16;;;;;;;0.70;0.43;;;;;;;;;;5115206;28;20365;-58
2023/01/06 08:23:43;;;;;;;1.70;0.90;;;;;;;;;;5114855;28;20089;-58
2023/01/06 08:26:09;;;;;;;2.10;1.02;;;;;;;;;;5115422;28;20103;-58
2023/01/06 08:28:35;;;;;;;1.30;0.60;;;;;;;;;;5115064;28;20056;-58
2023/01/06 08:31:01;;;;;;;1.48;0.95;;;;;;;;;;5115261;28;20034;-59
2023/01/06 08:33:27;;;;;;;2.40;0.93;;;;;;;;;;5115739;28;20027;-58
2023/01/06 08:36:00;;;;;;;2.20;1.58;;;;;;;;;;5115475;28;20084;-58
2023/01/06 08:38:27;;;;;;;1.75;0.90;;;;;;;;;;5096867;28;20437;-58
2023/01/06 08:40:53;;;;;;;2.03;0.95;;;;;;;;;;5114479;28;20024;-58
2023/01/06 08:43:19;;;;;;;2.20;1.00;;;;;;;;;;5114381;28;20028;-58
2023/01/06 08:45:45;;;;;;;1.35;0.70;;;;;;;;;;5115291;28;20031;-58
2023/01/06 08:48:11;;;;;;;1.40;0.80;;;;;;;;;;5115374;28;20035;-58
2023/01/06 08:50:38;;;;;;;2.28;0.93;;;;;;;;;;5114961;28;20076;-58
2023/01/06 08:53:04;;;;;;;1.70;0.77;;;;;;;;;;5114843;28;20024;-58
2023/01/06 08:55:30;;;;;;;1.38;0.70;;;;;;;;;;5114950;28;20357;-58
2023/01/06 08:57:56;;;;;;;3.65;0.70;;;;;;;;;;5115124;28;20076;-58
2023/01/06 09:00:22;;;;;;;0.90;0.55;;;;;;;;;;5114536;28;20118;-58
2023/01/06 09:02:48;;;;;;;0.95;0.50;;;;;;;;;;5115139;28;20131;-57
2023/01/06 09:05:14;;;;;;;0.93;0.45;;;;;;;;;;5114551;28;20027;-58
2023/01/06 09:07:40;;;;;;;1.42;0.50;;;;;;;;;;5114903;28;20031;-58
2023/01/06 09:10:06;;;;;;;1.02;0.57;;;;;;;;;;5114944;28;20080;-58
2023/01/06 09:12:32;;;;;;;1.30;0.63;;;;;;;;;;5114260;28;20114;-58
2023/01/06 09:14:58;;;;;;;1.15;0.57;;;;;;;;;;5114717;28;20055;-58
2023/01/06 09:17:24;;;;;;;4.75;0.50;;;;;;;;;;5114283;28;20469;-58
2023/01/06 09:19:50;;;;;;;0.90;0.60;;;;;;;;;;5114215;28;20453;-58
2023/01/06 09:22:16;;;;;;;1.60;0.70;;;;;;;;;;5114254;28;20034;-58
2023/01/06 09:24:42;;;;;;;0.88;0.47;;;;;;;;;;5114882;28;20027;-58
2023/01/06 09:27:08;;;;;;;0.45;0.22;;;;;;;;;;5114991;28;20061;-58
2023/01/06 09:29:34;;;;;;;0.85;0.43;;;;;;;;;;5114453;28;20032;-58
2023/01/06 09:32:00;;;;;;;4.03;0.65;;;;;;;;;;5114045;28;20032;-59
2023/01/06 09:34:26;;;;;;;0.57;0.30;;;;;;;;;;5114465;28;20110;-58
2023/01/06 09:36:52;;;;;;;1.65;1.23;;;;;;;;;;5114334;28;20027;-58
2023/01/06 09:39:18;;;;;;;1.40;0.90;;;;;;;;;;5114037;28;20081;-58
2023/01/06 09:41:53;;;;;;;1.67;0.73;;;;;;;;;;5114132;28;20023;-58
2023/01/06 09:44:29;;;;;;;0.63;0.30;;;;;;;;;;5114172;28;20068;-58
2023/01/06 09:46:56;;;;;;;1.65;0.43;;;;;;;;;;5114820;28;20110;-58
2023/01/06 09:49:33;;;;;;;1.10;0.30;;;;;;;;;;5114286;28;20487;-58
2023/01/06 09:52:11;;;;;;;0.85;0.20;;;;;;;;;;5114630;28;20055;-58
2023/01/06 09:54:40;;;;;;;1.63;0.60;;;;;;;;;;5118074;28;20035;-58
2023/01/06 09:57:10;;;;;;;0.15;0.15;;;;;;;;;;5117971;28;20073;-58
2023/01/06 09:59:51;;;;;;;1.23;0.52;;;;;;;;;;5118150;28;20032;-58
2023/01/06 10:02:22;;;;;;;1.13;0.60;;;;;;;;;;5117605;28;20051;-57
2023/01/06 10:04:48;;;;;;;0.52;0.30;;;;;;;;;;5117963;28;20070;-58
2023/01/06 10:07:29;;;;;;;0.80;0.30;;;;;;;;;;5118362;28;20035;-57
2023/01/06 10:10:04;;;;;;;0.28;0.15;;;;;;;;;;5117741;28;20039;-58
2023/01/06 10:12:33;;;;;;;0.68;0.55;;;;;;;;;;5117881;28;20357;-58
2023/01/06 10:15:16;;;;;;;0.98;0.30;;;;;;;;;;5118043;28;20031;-58
2023/01/06 10:17:54;;;;;;;0.22;0.20;;;;;;;;;;5117674;28;20130;-58
2023/01/06 10:20:29;;;;;;;1.02;0.40;;;;;;;;;;5117457;28;20081;-58
2023/01/06 10:22:55;;;;;;;1.50;0.73;;;;;;;;;;5117514;28;20020;-59
2023/01/06 10:25:31;;;;;;;0.50;0.20;;;;;;;;;;5117547;28;20028;-58
2023/01/06 10:28:16;;;;;;;0.55;0.30;;;;;;;;;;5117977;28;20031;-59
2023/01/06 10:30:47;;;;;;;0.98;0.30;;;;;;;;;;5117366;28;20374;-58
2023/01/06 10:33:30;;;;;;;0.50;0.28;;;;;;;;;;5117301;28;20015;-58
2023/01/06 10:35:56;;;;;;;1.05;0.50;;;;;;;;;;5117305;28;20469;-59
2023/01/06 10:38:26;;;;;;;2.10;0.65;;;;;;;;;;5117158;28;20023;-58
2023/01/06 10:40:53;;;;;;;0.63;0.28;;;;;;;;;;5117226;28;20419;-59
2023/01/06 10:43:21;;;;;;;2.03;0.75;;;;;;;;;;5117166;28;20453;-59
2023/01/06 10:45:47;;;;;;;1.45;0.45;;;;;;;;;;5117701;28;20028;-57
2023/01/06 10:48:15;;;;;;;1.48;0.77;;;;;;;;;;5116741;28;20473;-59
2023/01/06 10:50:41;;;;;;;1.50;0.90;;;;;;;;;;5117018;28;20034;-59
2023/01/06 10:53:08;;;;;;;0.70;0.40;;;;;;;;;;5117288;28;20023;-58
2023/01/06 10:55:43;;;;;;;2.97;0.88;;;;;;;;;;5117027;28;20031;-58
2023/01/06 10:58:14;;;;;;;0.70;0.47;;;;;;;;;;5116849;28;20062;-58
2023/01/06 11:00:40;;;;;;;;;;;;;;;;;;5116719;28;20040;-58
2023/01/06 11:03:11;;;;;;;0.45;0.20;;;;;;;;;;5116823;28;19916;-58
2023/01/06 11:05:37;;;;;;;0.98;0.43;;;;;;;;;;5116398;28;20027;-58
2023/01/06 11:08:06;;;;;;;1.05;0.75;;;;;;;;;;5116674;28;20032;-58
2023/01/06 11:10:38;;;;;;;0.20;0.10;;;;;;;;;;5116573;28;20035;-58
2023/01/06 11:13:05;;;;;;;0.70;0.22;;;;;;;;;;5116570;28;20038;-58
2023/01/06 11:15:36;;;;;;;0.38;0.22;;;;;;;;;;5116911;28;20027;-58
2023/01/06 11:18:02;;;;;;;;;;;;;;;;;;5117158;28;20081;-58
2023/01/06 11:20:29;;;;;;;0.85;0.38;;;;;;;;;;5116208;28;19915;-56
2023/01/06 11:23:03;;;;;;;0.68;0.30;;;;;;;;;;5099165;28;20457;-57
2023/01/06 11:25:31;;;;;;;0.77;0.32;;;;;;;;;;5117204;28;20050;-58
2023/01/06 11:28:16;;;;;;;0.55;0.20;;;;;;;;;;5115913;28;20015;-58
2023/01/06 11:30:48;;;;;;;0.50;0.20;;;;;;;;;;5116423;28;20114;-57
2023/01/06 11:33:18;;;;;;;0.22;0.20;;;;;;;;;;5116802;28;20047;-58
2023/01/06 11:35:44;;;;;;;0.52;0.17;;;;;;;;;;5116124;28;20024;-58
2023/01/06 11:38:14;;;;;;;0.10;0.00;;;;;;;;;;5115756;28;20035;-57
2023/01/06 11:40:42;;;;;;;0.38;0.22;;;;;;;;;;5116295;28;20038;-58
2023/01/06 11:43:12;;;;;;;0.70;0.30;;;;;;;;;;5115929;28;20019;-58
2023/01/06 11:45:39;;;;;;;0.32;0.17;;;;;;;;;;5116330;28;20046;-58
2023/01/06 11:48:06;;;;;;;0.63;0.28;;;;;;;;;;5116395;28;20373;-56
2023/01/06 11:50:32;;;;;;;0.35;0.20;;;;;;;;;;5116113;28;20035;-57
2023/01/06 11:53:03;;;;;;;0.38;0.20;;;;;;;;;;5115749;28;20085;-58
2023/01/06 11:55:29;;;;;;;0.25;0.17;;;;;;;;;;5116403;28;20027;-58
2023/01/06 11:58:10;;;;;;;0.52;0.28;;;;;;;;;;5115579;28;20107;-58
2023/01/06 12:00:40;;;;;;;0.47;0.20;;;;;;;;;;5115448;28;20039;-58
2023/01/06 12:03:20;;;;;;;0.20;0.10;;;;;;;;;;5116061;28;20075;-58
2023/01/06 12:06:01;;;;;;;0.57;0.20;;;;;;;;;;5115876;28;20076;-57
2023/01/06 12:08:27;;;;;;;;;;;;;;;;;;5115891;28;20103;-58
2023/01/06 12:10:55;;;;;;;0.20;0.10;;;;;;;;;;5115390;28;20024;-58
2023/01/06 12:13:22;;;;;;;0.60;0.30;;;;;;;;;;5115674;28;20130;-57
2023/01/06 12:15:53;;;;;;;0.05;0.03;;;;;;;;;;5114920;28;20031;-58
2023/01/06 12:18:21;;;;;;;0.30;0.22;;;;;;;;;;5114979;28;20458;-58
2023/01/06 12:20:49;;;;;;;2.78;0.20;;;;;;;;;;5114914;28;20081;-57
2023/01/06 12:23:19;;;;;;;0.20;0.10;;;;;;;;;;5115021;28;20054;-57
2023/01/06 12:25:46;;;;;;;0.95;0.30;;;;;;;;;;5114833;28;20089;-58
2023/01/06 12:28:12;;;;;;;0.43;0.20;;;;;;;;;;5115117;28;20361;-58
2023/01/06 12:30:46;;;;;;;0.32;0.15;;;;;;;;;;5115325;28;20028;-57
2023/01/06 12:33:35;;;;;;;0.57;0.28;;;;;;;;;;5115293;28;20469;-58
2023/01/06 12:36:09;;;;;;;0.30;0.20;;;;;;;;;;5087615;28;20043;-58
2023/01/06 12:38:52;;;;;;;0.65;0.20;;;;;;;;;;5115242;28;20028;-58
2023/01/06 12:41:27;;;;;;;0.63;0.20;;;;;;;;;;5115212;28;20095;-56
2023/01/06 12:44:00;;;;;;;1.02;0.30;;;;;;;;;;5114588;28;20046;-56
2023/01/06 12:46:30;;;;;;;1.35;0.45;;;;;;;;;;5114864;28;20020;-57
2023/01/06 12:49:02;;;;;;;0.82;0.40;;;;;;;;;;5114836;28;20020;-57
2023/01/06 12:51:28;;;;;;;2.28;0.22;;;;;;;;;;5114697;28;20083;-59
2023/01/06 12:53:57;;;;;;;1.17;0.50;;;;;;;;;;5114414;28;20107;-59
2023/01/06 12:56:43;;;;;;;1.58;0.80;;;;;;;;;;5114643;28;20062;-58
2023/01/06 12:59:24;;;;;;;1.55;0.70;;;;;;;;;;5114526;28;20024;-57
2023/01/06 13:01:59;;;;;;;1.30;0.77;;;;;;;;;;5114467;28;20078;-57
2023/01/06 13:04:39;;;;;;;0.88;0.50;;;;;;;;;;5114466;28;20084;-57
2023/01/06 13:07:19;;;;;;;0.65;0.30;;;;;;;;;;5114564;28;20024;-57
2023/01/06 13:09:54;;;;;;;0.98;0.40;;;;;;;;;;5115033;28;20034;-57
2023/01/06 13:12:35;;;;;;;0.73;0.30;;;;;;;;;;5114774;28;20028;-56
2023/01/06 13:15:01;;;;;;;1.02;0.43;;;;;;;;;;5114131;28;20077;-57
2023/01/06 13:17:27;;;;;;;0.38;0.22;;;;;;;;;;5114274;28;20465;-57
2023/01/06 13:19:54;;;;;;;0.60;0.30;;;;;;;;;;5114204;28;20062;-57
2023/01/06 13:22:26;;;;;;;0.85;0.45;;;;;;;;;;5114000;28;20458;-58
2023/01/06 13:25:07;;;;;;;0.25;0.13;;;;;;;;;;5114673;28;20400;-57
2023/01/06 13:27:39;;;;;;;0.45;0.20;;;;;;;;;;5113856;28;20020;-57
2023/01/06 13:30:15;;;;;;;1.38;0.35;;;;;;;;;;5115018;28;20028;-57
2023/01/06 13:32:53;;;;;;;0.82;0.30;;;;;;;;;;5114531;28;20048;-57
2023/01/06 13:35:34;;;;;;;0.63;0.30;;;;;;;;;;5114230;28;20024;-57
2023/01/06 13:38:19;;;;;;;1.65;0.57;;;;;;;;;;5114466;28;20020;-57
2023/01/06 13:40:47;;;;;;;1.85;0.65;;;;;;;;;;5113994;28;20058;-57
2023/01/06 13:43:25;;;;;;;2.38;0.68;;;;;;;;;;5114061;28;20410;-58
2023/01/06 13:45:54;;;;;;;1.88;1.10;;;;;;;;;;5114166;28;20047;-56
2023/01/06 13:48:24;;;;;;;1.67;0.98;;;;;;;;;;5114458;28;20016;-57
2023/01/06 13:50:50;;;;;;;1.30;0.70;;;;;;;;;;5114044;28;20031;-57
2023/01/06 13:53:17;;;;;;;1.33;0.35;;;;;;;;;;5113925;28;20035;-57
2023/01/06 13:55:44;;;;;;;1.00;0.30;;;;;;;;;;5114172;28;20024;-57
2023/01/06 13:58:25;;;;;;;0.85;0.30;;;;;;;;;;5113938;28;20343;-57
2023/01/06 14:01:10;;;;;;;0.15;0.10;;;;;;;;;;5114010;28;20110;-58
2023/01/06 14:03:40;;;;;;;2.50;0.65;;;;;;;;;;5113593;28;20100;-59
2023/01/06 14:06:32;;;;;;;2.15;0.60;;;;;;;;;;5114489;28;20084;-60
2023/01/06 14:08:59;;;;;;;0.60;0.20;;;;;;;;;;5075252;28;20415;-58
2023/01/06 14:11:27;;;;;;;0.63;0.17;;;;;;;;;;5113769;28;20035;-58
2023/01/06 14:13:59;;;;;;;0.93;0.40;;;;;;;;;;5113712;28;20118;-57
2023/01/06 14:16:39;;;;;;;0.30;0.17;;;;;;;;;;5113817;28;20027;-54
2023/01/06 14:19:31;;;;;;;0.90;0.43;;;;;;;;;;5113642;28;20382;-57
2023/01/06 14:22:12;;;;;;;0.57;0.25;;;;;;;;;;5109418;28;20118;-58
2023/01/06 14:24:41;;;;;;;0.60;0.30;;;;;;;;;;5113808;28;20073;-58
2023/01/06 14:27:10;;;;;;;1.38;0.75;;;;;;;;;;5113978;28;20028;-58
2023/01/06 14:29:40;;;;;;;2.20;1.15;;;;;;;;;;5113449;28;20103;-58
2023/01/06 14:32:27;;;;;;;1.77;0.93;;;;;;;;;;5113446;28;20035;-57
2023/01/06 14:34:57;;;;;;;1.58;1.08;;;;;;;;;;5062005;28;20070;-58
2023/01/06 14:37:25;;;;;;;1.83;1.00;;;;;;;;;;5113558;28;20020;-57
2023/01/06 14:39:53;;;;;;;1.75;0.70;;;;;;;;;;5116952;28;20043;-56
2023/01/06 14:42:18;;;;;;;2.42;0.80;;;;;;;;;;5117045;28;20023;-57
2023/01/06 14:44:47;;;;;;;2.58;1.20;;;;;;;;;;5117504;28;20023;-57
2023/01/06 14:47:16;;;;;;;2.10;1.08;;;;;;;;;;5116712;28;20481;-57
2023/01/06 14:49:56;;;;;;;1.73;1.00;;;;;;;;;;5116783;28;20490;-58
2023/01/06 14:52:22;;;;;;;;;;;;;;;;;;5117430;28;20476;-55
2023/01/06 14:54:49;;;;;;;2.20;1.30;;;;;;;;;;5117298;28;19903;-57
2023/01/06 14:57:25;;;;;;;4.57;0.80;;;;;;;;;;5116880;28;20048;-57
2023/01/06 15:00:10;;;;;;;1.80;0.82;;;;;;;;;;5117071;28;20047;-57
2023/01/06 15:02:37;;;;;;;2.25;0.93;;;;;;;;;;5116998;28;20109;-56